Valgardena — ICKG — position and weather

sailwx.info

Track history (hours):
 
Tides and Currents Weather Stations Pressure Air Temp Water Temp Dewpoint Dewpoint Depression Visibility Wind Speed Wind Dir Waves Ship Positions

Valgardena

Last reported at 2016-Jun-29 22:33 UTC. Time now 2016-Jun-29 23:49 UTC.
Position N 36°05' W 000°12'.

Length 184 m; draft 9.3 m.

Type: Ship (hazmat cat A). MMSI: 247243800.

Date/timePositionNaut miles runAvg speedWind from/ knotsBaromVisibWave heightAir tempDewpointWater temp
2016-Jun-29 22:33N 36°05' W 000°12'1 0.4
2016-Jun-29 21:11N 36°05' W 000°11'0 0.3
2016-Jun-29 20:33N 36°05' W 000°11'0 0.4
2016-Jun-29 19:33N 36°05' W 000°11'2 0.7
2016-Jun-29 17:10N 36°06' W 000°09'0 0.2
2016-Jun-29 16:33N 36°06' W 000°09'10 4.9
2016-Jun-29 14:33N 35°56' W 000°06'2 1.5
2016-Jun-29 13:31N 35°58' W 000°05'6 1.2
2016-Jun-29 08:20N 36°04' W 000°07'0 0.3
2016-Jun-29 07:33N 36°04' W 000°07'1 0.4
2016-Jun-29 05:29N 36°05' W 000°07'3 0.3
2016-Jun-28 19:30N 36°03' W 000°09'2 1.7
2016-Jun-28 18:04N 36°04' W 000°06'1 1.8
2016-Jun-28 17:33N 36°05' W 000°06'1 0.6
2016-Jun-28 16:33N 36°05' W 000°06'7 7.1
2016-Jun-28 15:33N 36°02' W 000°15'2 2.1
2016-Jun-28 14:33N 36°02' W 000°17'2 1.4
2016-Jun-28 13:24N 36°02' W 000°15'1 1.4
2016-Jun-28 12:33N 36°03' W 000°14'1 1.5
2016-Jun-28 11:32N 36°04' W 000°13'3 1.3
2016-Jun-28 09:33N 36°05' W 000°10'1 0.9
2016-Jun-28 08:33N 36°05' W 000°09'1 0.8
2016-Jun-28 07:33N 36°05' W 000°08'1 0.8
2016-Jun-28 06:30N 36°05' W 000°07'10 3.3
2016-Jun-28 03:31N 35°56' W 000°10'4 1.1
2016-Jun-27 23:31N 36°00' W 000°08'1 1.5
2016-Jun-27 22:32N 36°01' W 000°07'2 0.5
2016-Jun-27 19:28N 36°02' W 000°06'8 8.4
2016-Jun-27 18:33N 35°56' W 000°11'3 0.2
2016-Jun-27 07:28N 35°58' W 000°09'5 0.2
2016-Jun-26 06:23N 36°03' W 000°10'3 1.5
2016-Jun-26 04:29N 35°60' W 000°10'3 2.7
2016-Jun-26 03:30N 35°57' W 000°10'1 0.5
2016-Jun-26 02:33N 35°58' W 000°10'1 0.6
2016-Jun-26 01:33N 35°58' W 000°10'1 0.8
2016-Jun-26 00:33N 35°59' W 000°09'1 0.6
2016-Jun-25 23:17N 35°60' W 000°09'0 0.6
2016-Jun-25 22:33N 35°60' W 000°09'2 2.4
2016-Jun-25 21:32N 35°59' W 000°12'4 4.0
2016-Jun-25 20:34N 35°59' W 000°16'1 0.8
2016-Jun-25 19:29N 35°59' W 000°15'1 0.8
2016-Jun-25 18:33N 35°59' W 000°14'1 0.8
2016-Jun-25 17:33N 35°60' W 000°14'1 0.8
2016-Jun-25 16:34N 36°00' W 000°13'1 0.6
2016-Jun-25 15:33N 36°01' W 000°12'5 3.5
2016-Jun-25 14:14N 35°58' W 000°16'1 0.9
2016-Jun-25 13:25N 35°58' W 000°16'1 0.7
2016-Jun-25 12:33N 35°59' W 000°16'1 0.7
2016-Jun-25 11:34N 35°59' W 000°15'1 0.8
2016-Jun-25 10:33N 36°00' W 000°15'1 0.8
2016-Jun-25 09:33N 36°01' W 000°14'2 0.8
2016-Jun-25 07:32N 36°02' W 000°13'1 0.7
2016-Jun-25 06:33N 36°03' W 000°12'1 0.7
2016-Jun-25 05:34N 36°03' W 000°12'1 1.2
2016-Jun-25 04:33N 36°05' W 000°12'5 5.5
2016-Jun-25 03:33N 35°59' W 000°14'2 1.8
2016-Jun-25 02:33N 35°58' W 000°12'1 0.7
2016-Jun-25 01:04N 35°59' W 000°13'0 0.1
2016-Jun-25 00:33N 35°59' W 000°13'0 0.4
2016-Jun-24 23:33N 35°59' W 000°13'0 0.3
2016-Jun-24 22:33N 35°59' W 000°13'0 0.3
2016-Jun-24 21:33N 35°60' W 000°14'0 0.1
2016-Jun-24 20:33N 35°60' W 000°14'1 0.8
2016-Jun-24 19:33N 36°00' W 000°13'1 1.1
2016-Jun-24 18:33N 36°01' W 000°11'1 1.2
2016-Jun-24 17:33N 36°01' W 000°10'1 1.5
2016-Jun-24 16:34N 36°02' W 000°09'1 0.9
2016-Jun-24 15:34N 36°01' W 000°09'5 4.6
2016-Jun-24 14:33N 35°58' W 000°14'1 1.2
2016-Jun-24 13:33N 35°59' W 000°12'1 1.2
2016-Jun-24 12:34N 35°60' W 000°11'1 1.2
2016-Jun-24 11:33N 36°00' W 000°10'1 1.5
2016-Jun-24 10:34N 36°01' W 000°09'4 4.2
2016-Jun-24 09:33N 35°58' W 000°11'0 0.3
2016-Jun-24 08:34N 35°58' W 000°11'1 0.6
2016-Jun-24 07:33N 35°58' W 000°10'2 0.6
2016-Jun-24 04:34N 35°60' W 000°10'1 0.6
2016-Jun-24 03:18N 36°00' W 000°10'0 0.5
2016-Jun-24 02:33N 36°01' W 000°09'0 0.4
2016-Jun-24 01:33N 36°01' W 000°09'0 0.4
2016-Jun-24 00:33N 36°01' W 000°09'2 2.0
2016-Jun-23 23:26N 36°01' W 000°11'3 3.4
2016-Jun-23 22:33N 36°01' W 000°15'1 1.0
2016-Jun-23 21:33N 36°01' W 000°14'1 1.1
2016-Jun-23 20:33N 36°01' W 000°12'1 1.2
2016-Jun-23 19:33N 36°02' W 000°11'1 1.0
2016-Jun-23 18:33N 36°02' W 000°10'5 5.0
2016-Jun-23 17:33N 35°57' W 000°09'1 0.9
2016-Jun-23 16:33N 35°57' W 000°09'1 0.9
2016-Jun-23 15:33N 35°58' W 000°08'1 0.9
2016-Jun-23 14:33N 35°59' W 000°07'2 0.7
2016-Jun-23 11:32N 35°58' W 000°10'1 1.1
2016-Jun-23 10:30N 35°59' W 000°10'18 7.3
2016-Jun-23 08:05N 36°06' W 000°30'712.4
2016-Jun-23 07:32N 36°06' W 000°39'22112.8
2016-Jun-22 14:19N 36°01' W 005°12'1012.9
2016-Jun-22 13:34N 36°06' W 005°23'4 0.5
2016-Jun-22 06:14N 36°08' W 005°26'0 0.0
2016-Jun-22 04:26N 36°08' W 005°26'0 0.0
2016-Jun-22 03:29N 36°08' W 005°26'0 0.0
2016-Jun-22 02:32N 36°08' W 005°26'0 0.0
2016-Jun-22 00:05N 36°08' W 005°26'0 0.0
2016-Jun-21 23:17N 36°08' W 005°26'0 0.0
2016-Jun-21 19:32N 36°08' W 005°26'0 0.0
2016-Jun-21 17:29N 36°08' W 005°26'0 0.0
2016-Jun-21 15:29N 36°08' W 005°26'0 0.0
2016-Jun-21 14:32N 36°08' W 005°26'0 0.0
2016-Jun-21 13:32N 36°08' W 005°26'0 0.0
2016-Jun-21 12:32N 36°08' W 005°26'0 0.0
2016-Jun-21 11:20N 36°08' W 005°26'0 0.0
2016-Jun-21 10:32N 36°08' W 005°26'0 0.0
2016-Jun-21 04:32N 36°08' W 005°26'0 0.0
2016-Jun-21 03:26N 36°08' W 005°26'0 0.0
2016-Jun-21 02:29N 36°08' W 005°26'0 0.0
2016-Jun-21 01:29N 36°08' W 005°26'0 0.0
2016-Jun-21 00:32N 36°08' W 005°26'0 0.0
2016-Jun-20 23:17N 36°08' W 005°26'0 0.0
2016-Jun-20 22:29N 36°08' W 005°26'0 0.0
2016-Jun-20 21:05N 36°08' W 005°26'0 0.0
2016-Jun-20 20:29N 36°08' W 005°26'0 0.0
2016-Jun-20 19:29N 36°08' W 005°26'0 0.0
2016-Jun-20 17:17N 36°08' W 005°26'0 0.0
2016-Jun-20 16:29N 36°08' W 005°26'0 0.0
2016-Jun-20 15:29N 36°08' W 005°26'0 0.0
2016-Jun-20 14:29N 36°08' W 005°26'0 0.0
2016-Jun-20 13:29N 36°08' W 005°26'2 2.3
2016-Jun-20 12:24N 36°07' W 005°23'3 3.9
2016-Jun-20 11:34N 36°05' W 005°20'4911.9
2016-Jun-20 07:28N 36°12' W 004°21'1111.8
2016-Jun-20 06:33N 36°13' W 004°08'1313.1
2016-Jun-20 05:33N 36°15' W 003°52'1313.1
2016-Jun-20 04:33N 36°17' W 003°35'1313.5
2016-Jun-20 03:33N 36°18' W 003°19'1313.3
2016-Jun-20 02:33N 36°20' W 003°03'1313.0
2016-Jun-20 01:33N 36°22' W 002°47'1313.1
2016-Jun-20 00:33N 36°24' W 002°30'1312.5
2016-Jun-19 23:33N 36°25' W 002°15'1312.6
2016-Jun-19 22:33N 36°32' W 002°02'  
Track history (hours):
 
Tides and Currents Weather Stations Pressure Air Temp Water Temp Dewpoint Dewpoint Depression Visibility Wind Speed Wind Dir Waves Ship Positions

Valgardena

Last reported at 2016-Jun-29 22:33 UTC. Time now 2016-Jun-29 23:49 UTC.
Position N 36°05' W 000°12'.

Length 184 m; draft 9.3 m.

Type: Ship (hazmat cat A). MMSI: 247243800.

Date/timePositionNaut miles runAvg speedWind from/ knotsBaromVisibWave heightAir tempDewpointWater temp
2016-Jun-29 22:33N 36°05' W 000°12'1 0.4
2016-Jun-29 21:11N 36°05' W 000°11'0 0.3
2016-Jun-29 20:33N 36°05' W 000°11'0 0.4
2016-Jun-29 19:33N 36°05' W 000°11'2 0.7
2016-Jun-29 17:10N 36°06' W 000°09'0 0.2
2016-Jun-29 16:33N 36°06' W 000°09'10 4.9
2016-Jun-29 14:33N 35°56' W 000°06'2 1.5
2016-Jun-29 13:31N 35°58' W 000°05'6 1.2
2016-Jun-29 08:20N 36°04' W 000°07'0 0.3
2016-Jun-29 07:33N 36°04' W 000°07'1 0.4
2016-Jun-29 05:29N 36°05' W 000°07'3 0.3
2016-Jun-28 19:30N 36°03' W 000°09'2 1.7
2016-Jun-28 18:04N 36°04' W 000°06'1 1.8
2016-Jun-28 17:33N 36°05' W 000°06'1 0.6
2016-Jun-28 16:33N 36°05' W 000°06'7 7.1
2016-Jun-28 15:33N 36°02' W 000°15'2 2.1
2016-Jun-28 14:33N 36°02' W 000°17'2 1.4
2016-Jun-28 13:24N 36°02' W 000°15'1 1.4
2016-Jun-28 12:33N 36°03' W 000°14'1 1.5
2016-Jun-28 11:32N 36°04' W 000°13'3 1.3
2016-Jun-28 09:33N 36°05' W 000°10'1 0.9
2016-Jun-28 08:33N 36°05' W 000°09'1 0.8
2016-Jun-28 07:33N 36°05' W 000°08'1 0.8
2016-Jun-28 06:30N 36°05' W 000°07'10 3.3
2016-Jun-28 03:31N 35°56' W 000°10'4 1.1
2016-Jun-27 23:31N 36°00' W 000°08'1 1.5
2016-Jun-27 22:32N 36°01' W 000°07'2 0.5
2016-Jun-27 19:28N 36°02' W 000°06'8 8.4
2016-Jun-27 18:33N 35°56' W 000°11'3 0.2
2016-Jun-27 07:28N 35°58' W 000°09'5 0.2
2016-Jun-26 06:23N 36°03' W 000°10'3 1.5
2016-Jun-26 04:29N 35°60' W 000°10'3 2.7
2016-Jun-26 03:30N 35°57' W 000°10'1 0.5
2016-Jun-26 02:33N 35°58' W 000°10'1 0.6
2016-Jun-26 01:33N 35°58' W 000°10'1 0.8
2016-Jun-26 00:33N 35°59' W 000°09'1 0.6
2016-Jun-25 23:17N 35°60' W 000°09'0 0.6
2016-Jun-25 22:33N 35°60' W 000°09'2 2.4
2016-Jun-25 21:32N 35°59' W 000°12'4 4.0
2016-Jun-25 20:34N 35°59' W 000°16'1 0.8
2016-Jun-25 19:29N 35°59' W 000°15'1 0.8
2016-Jun-25 18:33N 35°59' W 000°14'1 0.8
2016-Jun-25 17:33N 35°60' W 000°14'1 0.8
2016-Jun-25 16:34N 36°00' W 000°13'1 0.6
2016-Jun-25 15:33N 36°01' W 000°12'5 3.5
2016-Jun-25 14:14N 35°58' W 000°16'1 0.9
2016-Jun-25 13:25N 35°58' W 000°16'1 0.7
2016-Jun-25 12:33N 35°59' W 000°16'1 0.7
2016-Jun-25 11:34N 35°59' W 000°15'1 0.8
2016-Jun-25 10:33N 36°00' W 000°15'1 0.8
2016-Jun-25 09:33N 36°01' W 000°14'2 0.8
2016-Jun-25 07:32N 36°02' W 000°13'1 0.7
2016-Jun-25 06:33N 36°03' W 000°12'1 0.7
2016-Jun-25 05:34N 36°03' W 000°12'1 1.2
2016-Jun-25 04:33N 36°05' W 000°12'5 5.5
2016-Jun-25 03:33N 35°59' W 000°14'2 1.8
2016-Jun-25 02:33N 35°58' W 000°12'1 0.7
2016-Jun-25 01:04N 35°59' W 000°13'0 0.1
2016-Jun-25 00:33N 35°59' W 000°13'0 0.4
2016-Jun-24 23:33N 35°59' W 000°13'0 0.3
2016-Jun-24 22:33N 35°59' W 000°13'0 0.3
2016-Jun-24 21:33N 35°60' W 000°14'0 0.1
2016-Jun-24 20:33N 35°60' W 000°14'1 0.8
2016-Jun-24 19:33N 36°00' W 000°13'1 1.1
2016-Jun-24 18:33N 36°01' W 000°11'1 1.2
2016-Jun-24 17:33N 36°01' W 000°10'1 1.5
2016-Jun-24 16:34N 36°02' W 000°09'1 0.9
2016-Jun-24 15:34N 36°01' W 000°09'5 4.6
2016-Jun-24 14:33N 35°58' W 000°14'1 1.2
2016-Jun-24 13:33N 35°59' W 000°12'1 1.2
2016-Jun-24 12:34N 35°60' W 000°11'1 1.2
2016-Jun-24 11:33N 36°00' W 000°10'1 1.5
2016-Jun-24 10:34N 36°01' W 000°09'4 4.2
2016-Jun-24 09:33N 35°58' W 000°11'0 0.3
2016-Jun-24 08:34N 35°58' W 000°11'1 0.6
2016-Jun-24 07:33N 35°58' W 000°10'2 0.6
2016-Jun-24 04:34N 35°60' W 000°10'1 0.6
2016-Jun-24 03:18N 36°00' W 000°10'0 0.5
2016-Jun-24 02:33N 36°01' W 000°09'0 0.4
2016-Jun-24 01:33N 36°01' W 000°09'0 0.4
2016-Jun-24 00:33N 36°01' W 000°09'2 2.0
2016-Jun-23 23:26N 36°01' W 000°11'3 3.4
2016-Jun-23 22:33N 36°01' W 000°15'1 1.0
2016-Jun-23 21:33N 36°01' W 000°14'1 1.1
2016-Jun-23 20:33N 36°01' W 000°12'1 1.2
2016-Jun-23 19:33N 36°02' W 000°11'1 1.0
2016-Jun-23 18:33N 36°02' W 000°10'5 5.0
2016-Jun-23 17:33N 35°57' W 000°09'1 0.9
2016-Jun-23 16:33N 35°57' W 000°09'1 0.9
2016-Jun-23 15:33N 35°58' W 000°08'1 0.9
2016-Jun-23 14:33N 35°59' W 000°07'2 0.7
2016-Jun-23 11:32N 35°58' W 000°10'1 1.1
2016-Jun-23 10:30N 35°59' W 000°10'18 7.3
2016-Jun-23 08:05N 36°06' W 000°30'712.4
2016-Jun-23 07:32N 36°06' W 000°39'22112.8
2016-Jun-22 14:19N 36°01' W 005°12'1012.9
2016-Jun-22 13:34N 36°06' W 005°23'4 0.5
2016-Jun-22 06:14N 36°08' W 005°26'0 0.0
2016-Jun-22 04:26N 36°08' W 005°26'0 0.0
2016-Jun-22 03:29N 36°08' W 005°26'0 0.0
2016-Jun-22 02:32N 36°08' W 005°26'0 0.0
2016-Jun-22 00:05N 36°08' W 005°26'0 0.0
2016-Jun-21 23:17N 36°08' W 005°26'0 0.0
2016-Jun-21 19:32N 36°08' W 005°26'0 0.0
2016-Jun-21 17:29N 36°08' W 005°26'0 0.0
2016-Jun-21 15:29N 36°08' W 005°26'0 0.0
2016-Jun-21 14:32N 36°08' W 005°26'0 0.0
2016-Jun-21 13:32N 36°08' W 005°26'0 0.0
2016-Jun-21 12:32N 36°08' W 005°26'0 0.0
2016-Jun-21 11:20N 36°08' W 005°26'0 0.0
2016-Jun-21 10:32N 36°08' W 005°26'0 0.0
2016-Jun-21 04:32N 36°08' W 005°26'0 0.0
2016-Jun-21 03:26N 36°08' W 005°26'0 0.0
2016-Jun-21 02:29N 36°08' W 005°26'0 0.0
2016-Jun-21 01:29N 36°08' W 005°26'0 0.0
2016-Jun-21 00:32N 36°08' W 005°26'0 0.0
2016-Jun-20 23:17N 36°08' W 005°26'0 0.0
2016-Jun-20 22:29N 36°08' W 005°26'0 0.0
2016-Jun-20 21:05N 36°08' W 005°26'0 0.0
2016-Jun-20 20:29N 36°08' W 005°26'0 0.0
2016-Jun-20 19:29N 36°08' W 005°26'0 0.0
2016-Jun-20 17:17N 36°08' W 005°26'0 0.0
2016-Jun-20 16:29N 36°08' W 005°26'0 0.0
2016-Jun-20 15:29N 36°08' W 005°26'0 0.0
2016-Jun-20 14:29N 36°08' W 005°26'0 0.0
2016-Jun-20 13:29N 36°08' W 005°26'2 2.3
2016-Jun-20 12:24N 36°07' W 005°23'3 3.9
2016-Jun-20 11:34N 36°05' W 005°20'4911.9
2016-Jun-20 07:28N 36°12' W 004°21'1111.8
2016-Jun-20 06:33N 36°13' W 004°08'1313.1
2016-Jun-20 05:33N 36°15' W 003°52'1313.1
2016-Jun-20 04:33N 36°17' W 003°35'1313.5
2016-Jun-20 03:33N 36°18' W 003°19'1313.3
2016-Jun-20 02:33N 36°20' W 003°03'1313.0
2016-Jun-20 01:33N 36°22' W 002°47'1313.1
2016-Jun-20 00:33N 36°24' W 002°30'1312.5
2016-Jun-19 23:33N 36°25' W 002°15'1312.6
2016-Jun-19 22:33N 36°32' W 002°02'  

Dump ship's entire track history